aviador You're here:

OITM Decoded Metar

MARAGHEH in IRAN
Report Time2018-02-18 21:00:00
UTC Time2018-02-18 21:57:58
Flight Rules vfr VFR
Wind090° at 08 kt
W.Decomp.*RWY 08: 8.0 kt HW 0.8 kt RCW
W.Rank090° ranks 1
Current wind is below 090° avg. (9.8)
Visibility9999 m
Phenomena:N/A
Clouds:Few 041 Hf
Overcast 090 Hf
Expected CloudBase > 800 ft AGL from Temp-Dew spread
Ceiling9,000 ft
Temp03°C (ISA -3)
Dew Point01°C (87% RH)
AAT-1.7°C
QNH1009 hPa
Density Alt4,242 ft
Elevation4,396 ft
Report Wrong Elevation
Raw Report
METAR OITM 182100Z 09008KT 9999 FEW041 OVC090 03/01 Q1009=

Extra information for OITM:More info

Metar Taf Metar & Taf Last 4 Metars F.Rules Stats Wind Profile Meteogram Temp Stats Airport Information Weather charts Add Link Nearby VenuesMetar ALERT Operation Metar Decoded Social comments